This is the latest recevied weather packets stored in our database for station/object NT9G. If no packets are shown the sender has not sent any weather packets the latest 1 day(s).
| Time | Temp. | Humidity | Pressure | Rain* | Wind** | Luminosity | Snow |
|---|---|---|---|---|---|---|---|
| 1836274618 | 20° C | 69% | 1017.4 hPa | 0 mm | 0 m/s | - | - |
| 1836274469 | 20° C | 73% | 1017.2 hPa | 0 mm | 0 m/s | - | - |
| 1836274318 | 20° C | 68% | 1017.4 hPa | 0 mm | 0 m/s | - | - |
| 1836274169 | 19.44° C | 69% | 1017.3 hPa | 0 mm | 0 m/s | - | - |
| 1836274018 | 20° C | 68% | 1017.4 hPa | 0 mm | 0 m/s | - | - |
| 1778035887 | 11.11° C | 53% | 1011.5 hPa | 0.25 mm | 0 m/s | - | - |
| 1778034986 | 11.11° C | 52% | 1011.4 hPa | 0.25 mm | 0 m/s | - | - |
| 1778034385 | 11.11° C | 50% | 1011.4 hPa | 0.25 mm | 0 m/s | - | - |
| 1778034091 | 11.67° C | 50% | 1011.1 hPa | 0.25 mm | 0 m/s | - | - |
| 1778033785 | 11.67° C | 49% | 1011 hPa | 0.25 mm | 0 m/s | - | - |
| 1778033184 | 11.67° C | 49% | 1010.7 hPa | 0.25 mm | 0 m/s | - | - |
| 1778031982 | 11.67° C | 47% | 1010.8 hPa | 0.25 mm | 0 m/s | - | - |
| 1778031086 | 11.67° C | 44% | 1010.7 hPa | 0.25 mm | 0 m/s | - | - |
| 1778030782 | 12.22° C | 43% | 1010.6 hPa | 0.25 mm | 0 m/s | - | - |
| 1778030481 | 12.22° C | 42% | 1010.5 hPa | 0.25 mm | 0 m/s | - | - |
| 1778030183 | 12.22° C | 41% | 1010.3 hPa | 0.25 mm | 0 m/s | - | - |
| 1778029880 | 12.22° C | 41% | 1010.3 hPa | 0.25 mm | 0 m/s | - | - |
| 1778029281 | 12.22° C | 40% | 1010.2 hPa | 0.25 mm | 0 m/s | - | - |
| 1778028982 | 12.22° C | 39% | 1010.2 hPa | 0.25 mm | 0 m/s | - | - |
| 1778028683 | 12.22° C | 39% | 1010.1 hPa | 0.25 mm | 0 m/s | - | - |
| 1778020571 | 13.89° C | 35% | 1010 hPa | 0.25 mm | 0 m/s | - | - |
| 1778020271 | 13.89° C | 37% | 1010.1 hPa | 0.25 mm | 0 m/s | - | - |
| 1778019970 | 13.89° C | 35% | 1010.1 hPa | 0.25 mm | 0 m/s | - | - |
| 1778019670 | 13.89° C | 36% | 1010.1 hPa | 0.25 mm | 0 m/s | - | - |
| 1778019370 | 13.89° C | 36% | 1010.2 hPa | 0.25 mm | 0 m/s | - | - |
* Rain since midnight (hover to see other rain measurements)
** Current wind speed in m/s (hover to see current wind gust speed)